Time,TemperatureF,DewpointF,PressureIn,WindDirection,WindDirectionDegrees,WindSpeedMPH,WindSpeedGustMPH,Humidity,HourlyPrecipIn,Conditions,Clouds,dailyrainin,SoftwareType,DateUTC
2013-03-26 00:00:00,34.2,25.9,29.47,East,85,3.6,3.6,71,0.00,,,0.00,VWS V14.01,2013-03-26 04:00:00,
2013-03-26 00:06:00,34.2,25.9,29.50,ENE,69,2.7,3.6,71,0.00,,,0.00,VWS V14.01,2013-03-26 04:06:00,
2013-03-26 00:10:00,34.2,25.9,29.50,ENE,69,2.7,3.6,71,0.00,,,0.00,VWS V14.01,2013-03-26 04:10:00,
2013-03-26 00:11:00,34.1,26.5,29.50,ENE,74,3.6,3.6,74,0.00,,,0.00,VWS V14.01,2013-03-26 04:11:00,
2013-03-26 00:16:00,33.9,26.4,29.50,ENE,74,3.6,3.6,74,0.00,,,0.00,VWS V14.01,2013-03-26 04:16:00,
2013-03-26 00:20:00,33.9,26.4,29.50,East,79,2.7,3.6,74,0.00,,,0.00,VWS V14.01,2013-03-26 04:20:00,
2013-03-26 00:26:00,33.5,26.0,29.50,East,97,3.6,3.6,74,0.00,,,0.00,VWS V14.01,2013-03-26 04:26:00,
2013-03-26 00:30:00,33.5,26.0,29.50,ENE,74,6.3,6.3,74,0.00,,,0.00,VWS V14.01,2013-03-26 04:30:00,
2013-03-26 00:31:00,33.5,26.0,29.50,SSE,157,0.0,6.3,74,0.00,,,0.00,VWS V14.01,2013-03-26 04:31:00,
2013-03-26 00:36:00,33.5,26.8,29.50,East,89,4.0,6.3,76,0.00,,,0.00,VWS V14.01,2013-03-26 04:36:00,
2013-03-26 00:41:00,33.5,26.8,29.50,East,89,4.0,4.0,76,0.00,,,0.00,VWS V14.01,2013-03-26 04:41:00,
2013-03-26 00:46:00,33.5,26.8,29.50,ENE,65,2.7,4.0,76,0.00,,,0.00,VWS V14.01,2013-03-26 04:46:00,
2013-03-26 00:51:00,33.3,26.6,29.50,ENE,65,2.7,2.7,76,0.00,,,0.00,VWS V14.01,2013-03-26 04:51:00,
2013-03-26 00:56:00,33.2,26.4,29.50,ENE,78,4.0,4.0,76,0.00,,,0.00,VWS V14.01,2013-03-26 04:56:00,
2013-03-26 01:00:00,33.2,26.4,29.50,ESE,102,3.1,4.0,76,0.00,,,0.00,VWS V14.01,2013-03-26 05:00:00,
2013-03-26 01:01:00,33.2,26.4,29.50,ESE,102,3.1,3.1,76,0.00,,,0.00,VWS V14.01,2013-03-26 05:01:00,
2013-03-26 01:07:00,33.0,26.2,29.50,ESE,109,0.0,3.1,76,0.00,,,0.00,VWS V14.01,2013-03-26 05:07:00,
2013-03-26 01:10:00,33.0,26.2,29.50,ESE,109,0.0,3.1,76,0.00,,,0.00,VWS V14.01,2013-03-26 05:10:00,
2013-03-26 01:12:00,33.0,26.2,29.50,ESE,104,0.0,0.0,76,0.00,,,0.00,VWS V14.01,2013-03-26 05:12:00,
2013-03-26 01:17:00,32.4,27.1,29.50,ESE,104,0.0,0.0,80,0.00,,,0.00,VWS V14.01,2013-03-26 05:17:00,
2013-03-26 01:20:00,32.4,27.1,29.50,East,96,3.1,3.1,80,0.00,,,0.00,VWS V14.01,2013-03-26 05:20:00,
2013-03-26 01:22:00,32.3,26.9,29.50,East,96,3.1,3.1,80,0.00,,,0.00,VWS V14.01,2013-03-26 05:22:00,
2013-03-26 01:27:00,32.3,26.9,29.50,South,188,0.0,3.1,80,0.00,,,0.00,VWS V14.01,2013-03-26 05:27:00,
2013-03-26 01:32:00,32.3,26.9,29.50,East,90,0.0,0.0,80,0.00,,,0.00,VWS V14.01,2013-03-26 05:32:00,
2013-03-26 01:37:00,32.3,27.6,29.50,SSW,198,0.0,0.0,83,0.00,,,0.00,VWS V14.01,2013-03-26 05:37:00,
2013-03-26 01:40:00,32.1,27.5,29.50,SSW,199,0.0,0.0,83,0.00,,,0.00,VWS V14.01,2013-03-26 05:40:00,
2013-03-26 01:47:00,32.1,27.5,29.50,SE,144,0.0,0.0,83,0.00,,,0.00,VWS V14.01,2013-03-26 05:47:00,
2013-03-26 01:50:00,32.1,27.5,29.50,SE,144,0.0,0.0,83,0.00,,,0.00,VWS V14.01,2013-03-26 05:50:00,
2013-03-26 01:52:00,32.1,27.5,29.50,SW,222,0.0,0.0,83,0.00,,,0.00,VWS V14.01,2013-03-26 05:52:00,
2013-03-26 01:57:00,31.9,27.9,29.50,South,180,2.7,2.7,85,0.00,,,0.00,VWS V14.01,2013-03-26 05:57:00,
2013-03-26 02:00:00,31.9,27.9,29.50,East,81,4.0,4.0,85,0.00,,,0.00,VWS V14.01,2013-03-26 06:00:00,
2013-03-26 02:07:00,32.3,27.6,29.50,ENE,74,0.0,4.0,83,0.00,,,0.00,VWS V14.01,2013-03-26 06:07:00,
2013-03-26 02:12:00,32.3,27.6,29.50,SSW,197,0.0,0.0,83,0.00,,,0.00,VWS V14.01,2013-03-26 06:12:00,
2013-03-26 02:17:00,32.3,27.6,29.50,SSW,197,0.0,0.0,83,0.00,,,0.00,VWS V14.01,2013-03-26 06:17:00,
2013-03-26 02:20:00,32.3,27.6,29.50,ESE,104,0.0,4.0,83,0.00,,,0.00,VWS V14.01,2013-03-26 06:20:00,
2013-03-26 02:22:00,32.1,27.5,29.50,SE,129,0.0,0.0,83,0.00,,,0.00,VWS V14.01,2013-03-26 06:22:00,
2013-03-26 02:27:00,32.1,27.5,29.50,SE,134,0.0,0.0,83,0.00,,,0.00,VWS V14.01,2013-03-26 06:27:00,
2013-03-26 02:30:00,32.1,27.5,29.50,SE,134,0.0,0.0,83,0.00,,,0.00,VWS V14.01,2013-03-26 06:30:00,
2013-03-26 02:32:00,31.7,27.1,29.50,East,93,0.0,0.0,83,0.00,,,0.00,VWS V14.01,2013-03-26 06:32:00,
2013-03-26 02:37:00,31.7,27.1,29.50,East,85,0.0,2.7,83,0.00,,,0.00,VWS V14.01,2013-03-26 06:37:00,
2013-03-26 02:40:00,31.7,27.1,29.50,West,264,0.0,2.7,83,0.00,,,0.00,VWS V14.01,2013-03-26 06:40:00,
2013-03-26 02:47:00,31.7,27.1,29.50,ENE,72,2.2,2.2,83,0.00,,,0.00,VWS V14.01,2013-03-26 06:47:00,
2013-03-26 02:50:00,31.5,28.2,29.50,ENE,73,0.0,2.2,87,0.00,,,0.00,VWS V14.01,2013-03-26 06:50:00,
2013-03-26 02:52:00,31.5,28.2,29.50,ENE,73,0.0,0.0,87,0.00,,,0.00,VWS V14.01,2013-03-26 06:52:00,
2013-03-26 02:57:00,31.7,28.4,29.50,ENE,76,2.7,5.4,87,0.00,,,0.00,VWS V14.01,2013-03-26 06:57:00,
2013-03-26 03:02:00,31.7,28.4,29.50,ENE,69,6.3,6.3,87,0.00,,,0.00,VWS V14.01,2013-03-26 07:02:00,
2013-03-26 03:07:00,31.7,28.4,29.47,East,97,3.1,6.3,87,0.00,,,0.00,VWS V14.01,2013-03-26 07:07:00,
2013-03-26 03:10:00,31.7,28.4,29.47,East,97,3.1,6.3,87,0.00,,,0.00,VWS V14.01,2013-03-26 07:10:00,
2013-03-26 03:17:00,31.9,27.9,29.47,East,99,4.0,4.9,85,0.00,,,0.00,VWS V14.01,2013-03-26 07:17:00,
2013-03-26 03:20:00,31.9,27.9,29.47,East,99,4.0,4.9,85,0.00,,,0.00,VWS V14.01,2013-03-26 07:20:00,
2013-03-26 03:27:00,31.7,27.8,29.47,ENE,61,0.0,4.0,85,0.00,,,0.00,VWS V14.01,2013-03-26 07:27:00,
2013-03-26 03:30:00,31.7,27.8,29.47,ENE,66,0.0,4.0,85,0.00,,,0.00,VWS V14.01,2013-03-26 07:30:00,
2013-03-26 03:32:00,31.7,27.8,29.47,ENE,66,0.0,0.0,85,0.00,,,0.00,VWS V14.01,2013-03-26 07:32:00,
2013-03-26 03:37:00,31.7,27.8,29.47,East,95,0.0,0.0,85,0.00,,,0.00,VWS V14.01,2013-03-26 07:37:00,
2013-03-26 03:40:00,31.2,28.5,29.47,SE,140,0.0,0.0,90,0.00,,,0.00,VWS V14.01,2013-03-26 07:40:00,
2013-03-26 03:42:00,31.2,28.5,29.47,SE,137,0.0,0.0,90,0.00,,,0.00,VWS V14.01,2013-03-26 07:42:00,
2013-03-26 03:48:00,31.2,28.5,29.47,ENE,75,0.0,0.0,90,0.00,,,0.00,VWS V14.01,2013-03-26 07:48:00,
2013-03-26 03:53:00,31.0,29.0,29.47,East,94,3.6,5.4,92,0.00,,,0.00,VWS V14.01,2013-03-26 07:53:00,
2013-03-26 03:58:00,31.0,29.0,29.47,ENE,74,2.7,5.4,92,0.00,,,0.00,VWS V14.01,2013-03-26 07:58:00,
2013-03-26 04:00:00,31.0,29.0,29.47,ENE,74,2.7,5.4,92,0.00,,,0.00,VWS V14.01,2013-03-26 08:00:00,
2013-03-26 04:08:00,31.4,29.3,29.47,ENE,78,2.7,8.3,92,0.00,,,0.00,VWS V14.01,2013-03-26 08:08:00,
2013-03-26 04:10:00,31.4,29.3,29.47,South,175,0.0,8.3,92,0.00,,,0.00,VWS V14.01,2013-03-26 08:10:00,
2013-03-26 04:13:00,31.4,29.3,29.47,NE,49,5.4,5.4,92,0.00,,,0.00,VWS V14.01,2013-03-26 08:13:00,
2013-03-26 04:18:00,31.4,28.7,29.47,SSE,162,2.2,5.4,90,0.00,,,0.00,VWS V14.01,2013-03-26 08:18:00,
2013-03-26 04:23:00,31.4,28.7,29.47,East,82,0.0,0.0,90,0.00,,,0.00,VWS V14.01,2013-03-26 08:23:00,
2013-03-26 04:30:00,31.2,29.1,29.47,ENE,60,3.1,5.8,92,0.00,,,0.00,VWS V14.01,2013-03-26 08:30:00,
2013-03-26 04:38:00,31.4,29.3,29.47,ENE,61,0.0,3.1,92,0.00,,,0.00,VWS V14.01,2013-03-26 08:38:00,
2013-03-26 04:40:00,31.4,29.3,29.47,East,96,0.0,3.1,92,0.00,,,0.00,VWS V14.01,2013-03-26 08:40:00,
2013-03-26 04:43:00,31.4,29.3,29.47,East,96,0.0,0.0,92,0.00,,,0.00,VWS V14.01,2013-03-26 08:43:00,
2013-03-26 04:48:00,31.4,29.3,29.47,ENE,77,4.9,10.5,92,0.00,,,0.00,VWS V14.01,2013-03-26 08:48:00,
2013-03-26 04:50:00,31.4,29.3,29.47,ENE,77,4.9,10.5,92,0.00,,,0.00,VWS V14.01,2013-03-26 08:50:00,
2013-03-26 04:53:00,31.5,28.9,29.47,ESE,110,0.0,4.9,90,0.00,,,0.00,VWS V14.01,2013-03-26 08:53:00,
2013-03-26 04:58:00,31.5,28.9,29.47,East,86,3.1,4.9,90,0.00,,,0.00,VWS V14.01,2013-03-26 08:58:00,
2013-03-26 05:03:00,31.5,28.9,29.47,SSE,150,2.2,4.0,90,0.00,,,0.00,VWS V14.01,2013-03-26 09:03:00,
2013-03-26 05:08:00,31.5,29.5,29.44,East,87,3.6,6.3,92,0.00,,,0.00,VWS V14.01,2013-03-26 09:08:00,
2013-03-26 05:10:00,31.5,29.5,29.44,East,93,4.5,6.3,92,0.00,,,0.00,VWS V14.01,2013-03-26 09:10:00,
2013-03-26 05:13:00,31.5,29.5,29.44,ESE,108,3.6,5.4,92,0.00,,,0.00,VWS V14.01,2013-03-26 09:13:00,
2013-03-26 05:18:00,31.4,29.3,29.44,East,96,2.7,5.4,92,0.00,,,0.00,VWS V14.01,2013-03-26 09:18:00,
2013-03-26 05:20:00,31.4,29.3,29.44,ENE,73,8.1,8.1,92,0.00,,,0.00,VWS V14.01,2013-03-26 09:20:00,
2013-03-26 05:28:00,31.5,29.5,29.44,West,268,8.1,8.1,92,0.00,,,0.00,VWS V14.01,2013-03-26 09:28:00,
2013-03-26 05:30:00,31.5,29.5,29.44,West,268,8.1,8.1,92,0.00,,,0.00,VWS V14.01,2013-03-26 09:30:00,
2013-03-26 05:33:00,31.5,29.5,29.44,ENE,60,6.7,8.1,92,0.00,,,0.00,VWS V14.01,2013-03-26 09:33:00,
2013-03-26 05:38:00,31.4,29.3,29.44,ENE,62,2.7,8.1,92,0.00,,,0.00,VWS V14.01,2013-03-26 09:38:00,
2013-03-26 05:43:00,31.4,29.3,29.44,ENE,61,4.9,4.9,92,0.00,,,0.00,VWS V14.01,2013-03-26 09:43:00,
2013-03-26 05:48:00,31.4,29.3,29.44,ENE,60,4.0,4.9,92,0.00,,,0.00,VWS V14.01,2013-03-26 09:48:00,
2013-03-26 05:53:00,31.2,29.1,29.44,ENE,69,0.0,3.6,92,0.00,,,0.00,VWS V14.01,2013-03-26 09:53:00,
2013-03-26 05:58:00,30.8,29.4,29.44,ENE,63,4.9,5.8,94,0.00,,,0.00,VWS V14.01,2013-03-26 09:58:00,
2013-03-26 06:00:00,30.6,29.2,29.44,ENE,63,4.9,5.8,94,0.00,,,0.00,VWS V14.01,2013-03-26 10:00:00,
2013-03-26 06:03:00,30.6,29.2,29.44,SE,144,4.5,4.9,94,0.00,,,0.00,VWS V14.01,2013-03-26 10:03:00,
2013-03-26 06:08:00,30.6,29.2,29.44,ENE,62,4.0,4.9,94,0.00,,,0.00,VWS V14.01,2013-03-26 10:08:00,
2013-03-26 06:10:00,30.6,29.2,29.44,ENE,62,4.0,4.9,94,0.00,,,0.00,VWS V14.01,2013-03-26 10:10:00,
2013-03-26 06:13:00,30.6,29.2,29.44,ENE,65,3.6,4.0,94,0.00,,,0.00,VWS V14.01,2013-03-26 10:13:00,
2013-03-26 06:18:00,30.5,29.0,29.44,East,82,0.0,4.0,94,0.00,,,0.00,VWS V14.01,2013-03-26 10:18:00,
2013-03-26 06:20:00,30.5,29.0,29.44,East,82,0.0,4.0,94,0.00,,,0.00,VWS V14.01,2013-03-26 10:20:00,
2013-03-26 06:23:00,30.5,29.0,29.44,ENE,65,5.8,5.8,94,0.00,,,0.00,VWS V14.01,2013-03-26 10:23:00,
2013-03-26 06:28:00,30.5,29.6,29.44,NE,50,0.0,5.8,97,0.00,,,0.00,VWS V14.01,2013-03-26 10:28:00,
2013-03-26 06:33:00,30.5,29.6,29.47,East,98,4.9,4.9,97,0.00,,,0.00,VWS V14.01,2013-03-26 10:33:00,
2013-03-26 06:38:00,30.5,29.6,29.47,East,95,0.0,4.9,97,0.00,,,0.00,VWS V14.01,2013-03-26 10:38:00,
2013-03-26 06:40:00,30.5,29.6,29.47,NE,38,0.0,4.9,97,0.00,,,0.00,VWS V14.01,2013-03-26 10:40:00,
2013-03-26 06:43:00,30.3,29.4,29.47,NNW,330,0.0,0.0,97,0.00,,,0.00,VWS V14.01,2013-03-26 10:43:00,
2013-03-26 06:48:00,30.1,29.2,29.47,NE,54,3.6,3.6,97,0.00,,,0.00,VWS V14.01,2013-03-26 10:48:00,
2013-03-26 06:53:00,30.1,29.2,29.47,NE,54,0.0,3.6,97,0.00,,,0.00,VWS V14.01,2013-03-26 10:53:00,
2013-03-26 06:58:00,30.1,29.2,29.47,East,86,0.0,3.6,97,0.00,,,0.00,VWS V14.01,2013-03-26 10:58:00,
2013-03-26 07:00:00,30.1,29.2,29.47,East,86,0.0,3.6,97,0.00,,,0.00,VWS V14.01,2013-03-26 11:00:00,
2013-03-26 07:08:00,29.7,29.5,29.47,ENE,77,3.6,3.6,99,0.00,,,0.00,VWS V14.01,2013-03-26 11:08:00,
2013-03-26 07:10:00,29.7,29.5,29.47,NE,47,0.0,3.6,99,0.00,,,0.00,VWS V14.01,2013-03-26 11:10:00,
2013-03-26 07:13:00,29.7,29.5,29.47,NE,47,0.0,0.0,99,0.00,,,0.00,VWS V14.01,2013-03-26 11:13:00,
2013-03-26 07:18:00,29.6,29.3,29.47,ENE,62,2.7,3.1,99,0.00,,,0.00,VWS V14.01,2013-03-26 11:18:00,
2013-03-26 07:20:00,29.6,29.3,29.47,ENE,76,4.0,4.0,99,0.00,,,0.00,VWS V14.01,2013-03-26 11:20:00,
2013-03-26 07:23:00,29.6,29.3,29.47,NE,34,0.0,6.3,99,0.00,,,0.00,VWS V14.01,2013-03-26 11:23:00,
2013-03-26 07:28:00,29.6,29.3,29.47,NE,53,2.2,6.3,99,0.00,,,0.00,VWS V14.01,2013-03-26 11:28:00,
2013-03-26 07:30:00,29.6,29.3,29.47,ENE,58,4.0,6.3,99,0.00,,,0.00,VWS V14.01,2013-03-26 11:30:00,
2013-03-26 07:38:00,29.4,29.4,29.47,ENE,65,2.2,4.0,100,0.00,,,0.00,VWS V14.01,2013-03-26 11:38:00,
2013-03-26 07:40:00,29.4,29.4,29.47,ENE,59,0.0,4.0,100,0.00,,,0.00,VWS V14.01,2013-03-26 11:40:00,
2013-03-26 07:43:00,29.2,29.2,29.47,ENE,78,0.0,0.0,100,0.00,,,0.00,VWS V14.01,2013-03-26 11:43:00,
2013-03-26 07:48:00,29.2,29.2,29.47,NE,47,0.0,0.0,100,0.00,,,0.00,VWS V14.01,2013-03-26 11:48:00,
2013-03-26 07:50:00,29.2,29.2,29.47,NE,47,0.0,0.0,100,0.00,,,0.00,VWS V14.01,2013-03-26 11:50:00,
2013-03-26 07:53:00,29.2,29.2,29.47,NE,47,0.0,0.0,100,0.00,,,0.00,VWS V14.01,2013-03-26 11:53:00,
2013-03-26 07:58:00,28.8,28.8,29.47,East,86,3.1,3.1,100,0.00,,,0.00,VWS V14.01,2013-03-26 11:58:00,
2013-03-26 08:00:00,28.8,28.8,29.47,East,86,3.1,3.1,100,0.00,,,0.00,VWS V14.01,2013-03-26 12:00:00,
2013-03-26 08:03:00,28.8,28.8,29.47,NE,49,0.0,3.1,100,0.00,,,0.00,VWS V14.01,2013-03-26 12:03:00,
2013-03-26 08:08:00,29.2,29.2,29.47,ENE,57,3.6,4.9,100,0.00,,,0.00,VWS V14.01,2013-03-26 12:08:00,
2013-03-26 08:10:00,29.2,29.2,29.47,ENE,57,3.6,4.9,100,0.00,,,0.00,VWS V14.01,2013-03-26 12:10:00,
2013-03-26 08:13:00,29.4,29.4,29.47,ENE,77,0.0,3.6,100,0.00,,,0.00,VWS V14.01,2013-03-26 12:13:00,
2013-03-26 08:19:00,29.4,29.4,29.47,ENE,57,2.7,3.6,100,0.00,,,0.00,VWS V14.01,2013-03-26 12:19:00,
2013-03-26 08:20:00,29.4,29.4,29.47,ENE,57,2.7,3.6,100,0.00,,,0.00,VWS V14.01,2013-03-26 12:20:00,
2013-03-26 08:24:00,30.1,30.1,29.47,ENE,71,2.7,2.7,100,0.00,,,0.00,VWS V14.01,2013-03-26 12:24:00,
2013-03-26 08:29:00,30.3,30.3,29.47,ENE,71,2.7,2.7,100,0.00,,,0.00,VWS V14.01,2013-03-26 12:29:00,
2013-03-26 08:34:00,31.2,31.2,29.50,ENE,76,3.6,5.4,100,0.00,,,0.00,VWS V14.01,2013-03-26 12:34:00,
2013-03-26 08:39:00,31.5,31.3,29.50,East,89,5.8,6.3,99,0.00,,,0.00,VWS V14.01,2013-03-26 12:39:00,
2013-03-26 08:40:00,31.5,31.3,29.50,East,89,5.8,6.3,99,0.00,,,0.00,VWS V14.01,2013-03-26 12:40:00,
2013-03-26 08:44:00,31.5,31.3,29.50,NE,56,5.4,5.8,99,0.00,,,0.00,VWS V14.01,2013-03-26 12:44:00,
2013-03-26 08:49:00,33.2,31.7,29.50,ENE,67,4.0,5.8,94,0.00,,,0.00,VWS V14.01,2013-03-26 12:49:00,
2013-03-26 08:54:00,33.9,32.4,29.50,ENE,67,4.0,4.0,94,0.00,,,0.00,VWS V14.01,2013-03-26 12:54:00,
2013-03-26 08:59:00,33.9,32.4,29.50,East,89,7.6,8.1,94,0.00,,,0.00,VWS V14.01,2013-03-26 12:59:00,
2013-03-26 09:00:00,35.1,32.4,29.50,East,89,7.6,8.1,90,0.00,,,0.00,VWS V14.01,2013-03-26 13:00:00,
2013-03-26 09:04:00,35.3,32.6,29.50,ESE,112,3.6,7.6,90,0.00,,,0.00,VWS V14.01,2013-03-26 13:04:00,
2013-03-26 09:09:00,36.6,32.5,29.50,ENE,77,2.2,7.6,85,0.00,,,0.00,VWS V14.01,2013-03-26 13:09:00,
2013-03-26 09:10:00,36.6,32.5,29.50,ENE,58,5.4,7.6,85,0.00,,,0.00,VWS V14.01,2013-03-26 13:10:00,
2013-03-26 09:14:00,36.6,32.5,29.50,ENE,70,4.9,5.4,85,0.00,,,0.00,VWS V14.01,2013-03-26 13:14:00,
2013-03-26 09:19:00,38.2,32.0,29.50,East,81,2.7,5.4,78,0.00,,,0.00,VWS V14.01,2013-03-26 13:19:00,
2013-03-26 09:20:00,38.2,32.0,29.50,East,81,2.7,5.4,78,0.00,,,0.00,VWS V14.01,2013-03-26 13:20:00,
2013-03-26 09:24:00,38.2,32.0,29.50,ENE,74,5.4,5.8,78,0.00,,,0.00,VWS V14.01,2013-03-26 13:24:00,
2013-03-26 09:29:00,38.7,31.0,29.50,ENE,77,5.8,5.8,74,0.00,,,0.00,VWS V14.01,2013-03-26 13:29:00,
2013-03-26 09:30:00,38.7,31.0,29.50,NE,50,4.9,8.1,74,0.00,,,0.00,VWS V14.01,2013-03-26 13:30:00,
2013-03-26 09:39:00,39.5,31.7,29.50,East,86,5.8,5.8,74,0.00,,,0.00,VWS V14.01,2013-03-26 13:39:00,
2013-03-26 09:40:00,39.5,31.7,29.50,East,86,5.8,5.8,74,0.00,,,0.00,VWS V14.01,2013-03-26 13:40:00,
2013-03-26 09:44:00,40.7,32.2,29.50,East,88,3.6,5.8,71,0.00,,,0.00,VWS V14.01,2013-03-26 13:44:00,
2013-03-26 09:49:00,41.4,32.0,29.50,East,88,3.6,5.8,69,0.00,,,0.00,VWS V14.01,2013-03-26 13:49:00,
2013-03-26 09:50:00,41.4,32.0,29.50,SE,134,3.1,8.3,69,0.00,,,0.00,VWS V14.01,2013-03-26 13:50:00,
2013-03-26 09:54:00,42.0,32.6,29.53,SSE,155,3.6,3.6,69,0.00,,,0.00,VWS V14.01,2013-03-26 13:54:00,
2013-03-26 09:59:00,42.9,32.6,29.53,East,85,3.1,5.4,67,0.00,,,0.00,VWS V14.01,2013-03-26 13:59:00,
2013-03-26 10:00:00,42.9,32.6,29.53,East,85,3.1,5.4,67,0.00,,,0.00,VWS V14.01,2013-03-26 14:00:00,
2013-03-26 10:04:00,43.8,32.6,29.53,SSE,164,5.8,5.8,64,0.00,,,0.00,VWS V14.01,2013-03-26 14:04:00,
2013-03-26 10:09:00,43.6,32.4,29.53,SSE,168,3.6,5.8,64,0.00,,,0.00,VWS V14.01,2013-03-26 14:09:00,
2013-03-26 10:10:00,43.6,32.4,29.53,SSE,168,3.6,5.8,64,0.00,,,0.00,VWS V14.01,2013-03-26 14:10:00,
2013-03-26 10:14:00,43.6,32.4,29.53,SW,218,3.6,3.6,64,0.00,,,0.00,VWS V14.01,2013-03-26 14:14:00,
2013-03-26 10:19:00,45.4,33.2,29.53,ENE,64,4.0,6.3,62,0.00,,,0.00,VWS V14.01,2013-03-26 14:19:00,
2013-03-26 10:20:00,45.4,33.2,29.53,ENE,78,5.8,6.3,62,0.00,,,0.00,VWS V14.01,2013-03-26 14:20:00,
2013-03-26 10:24:00,45.4,33.2,29.53,East,96,5.8,8.1,62,0.00,,,0.00,VWS V14.01,2013-03-26 14:24:00,
2013-03-26 10:29:00,44.1,32.9,29.53,East,96,0.0,8.1,64,0.00,,,0.00,VWS V14.01,2013-03-26 14:29:00,
2013-03-26 10:30:00,44.1,32.9,29.53,East,90,10.1,10.1,64,0.00,,,0.00,VWS V14.01,2013-03-26 14:30:00,
2013-03-26 10:34:00,44.3,33.1,29.53,East,81,4.0,10.1,64,0.00,,,0.00,VWS V14.01,2013-03-26 14:34:00,
2013-03-26 10:39:00,44.3,33.1,29.53,East,81,4.0,10.1,64,0.00,,,0.00,VWS V14.01,2013-03-26 14:39:00,
2013-03-26 10:44:00,45.0,33.8,29.53,SW,233,4.5,8.7,64,0.00,,,0.00,VWS V14.01,2013-03-26 14:44:00,
2013-03-26 10:49:00,45.4,33.2,29.53,NE,44,2.7,8.7,62,0.00,,,0.00,VWS V14.01,2013-03-26 14:49:00,
2013-03-26 10:50:00,45.4,33.2,29.53,East,87,6.3,8.7,62,0.00,,,0.00,VWS V14.01,2013-03-26 14:50:00,
2013-03-26 10:54:00,45.4,33.2,29.53,ENE,77,3.1,6.3,62,0.00,,,0.00,VWS V14.01,2013-03-26 14:54:00,
2013-03-26 10:59:00,45.4,33.2,29.53,ESE,117,10.1,10.1,62,0.00,,,0.00,VWS V14.01,2013-03-26 14:59:00,
2013-03-26 11:04:00,45.9,33.7,29.53,SE,132,4.0,10.1,62,0.00,,,0.00,VWS V14.01,2013-03-26 15:04:00,
2013-03-26 11:09:00,45.4,33.2,29.53,ENE,70,5.8,10.1,62,0.00,,,0.00,VWS V14.01,2013-03-26 15:09:00,
2013-03-26 11:10:00,45.2,33.9,29.53,SE,140,3.1,10.1,64,0.00,,,0.00,VWS V14.01,2013-03-26 15:10:00,
2013-03-26 11:14:00,45.4,33.2,29.53,ENE,77,7.6,7.6,62,0.00,,,0.00,VWS V14.01,2013-03-26 15:14:00,
2013-03-26 11:19:00,43.6,31.5,29.53,WSW,244,3.6,7.6,62,0.00,,,0.00,VWS V14.01,2013-03-26 15:19:00,
2013-03-26 11:20:00,43.6,31.5,29.53,WSW,244,3.6,7.6,62,0.00,,,0.00,VWS V14.01,2013-03-26 15:20:00,
2013-03-26 11:24:00,43.6,31.5,29.53,ENE,58,2.7,5.8,62,0.00,,,0.00,VWS V14.01,2013-03-26 15:24:00,
2013-03-26 11:29:00,45.0,33.8,29.53,ENE,63,3.1,5.8,64,0.00,,,0.00,VWS V14.01,2013-03-26 15:29:00,
2013-03-26 11:34:00,45.0,33.8,29.53,ENE,68,3.6,3.6,64,0.00,,,0.00,VWS V14.01,2013-03-26 15:34:00,
2013-03-26 11:39:00,44.1,32.0,29.56,SE,126,5.4,5.4,62,0.00,,,0.00,VWS V14.01,2013-03-26 15:39:00,
2013-03-26 11:40:00,44.1,32.0,29.56,ENE,62,5.8,5.8,62,0.00,,,0.00,VWS V14.01,2013-03-26 15:40:00,
2013-03-26 11:44:00,44.1,32.0,29.56,ENE,73,10.5,10.5,62,0.00,,,0.00,VWS V14.01,2013-03-26 15:44:00,
2013-03-26 11:49:00,43.6,31.5,29.56,ESE,113,3.1,10.5,62,0.00,,,0.00,VWS V14.01,2013-03-26 15:49:00,
2013-03-26 11:50:00,43.6,31.5,29.56,ESE,113,3.1,10.5,62,0.00,,,0.00,VWS V14.01,2013-03-26 15:50:00,
2013-03-26 11:54:00,43.8,31.7,29.56,ENE,77,3.1,3.1,62,0.00,,,0.00,VWS V14.01,2013-03-26 15:54:00,
2013-03-26 11:59:00,43.8,31.7,29.56,SSE,167,5.4,7.6,62,0.00,,,0.00,VWS V14.01,2013-03-26 15:59:00,
2013-03-26 12:00:00,43.8,31.7,29.56,SSE,167,5.4,7.6,62,0.00,,,0.00,VWS V14.01,2013-03-26 16:00:00,
2013-03-26 12:04:00,43.1,31.9,29.56,East,86,2.7,5.4,64,0.00,,,0.00,VWS V14.01,2013-03-26 16:04:00,
2013-03-26 12:09:00,43.1,31.9,29.56,SSE,168,2.7,10.5,64,0.00,,,0.00,VWS V14.01,2013-03-26 16:09:00,
2013-03-26 12:10:00,43.1,31.9,29.56,SSE,168,2.7,10.5,64,0.00,,,0.00,VWS V14.01,2013-03-26 16:10:00,
2013-03-26 12:14:00,43.1,31.9,29.56,SW,219,3.1,3.1,64,0.00,,,0.00,VWS V14.01,2013-03-26 16:14:00,
2013-03-26 12:19:00,43.4,32.2,29.56,SE,125,5.8,5.8,64,0.00,,,0.00,VWS V14.01,2013-03-26 16:19:00,
2013-03-26 12:20:00,43.4,32.2,29.56,SE,125,5.8,5.8,64,0.00,,,0.00,VWS V14.01,2013-03-26 16:20:00,
2013-03-26 12:29:00,43.6,31.5,29.56,ENE,58,3.6,5.8,62,0.00,,,0.00,VWS V14.01,2013-03-26 16:29:00,
2013-03-26 12:30:00,43.6,31.5,29.56,East,97,12.3,12.3,62,0.00,,,0.00,VWS V14.01,2013-03-26 16:30:00,
2013-03-26 12:39:00,43.6,31.5,29.56,NW,304,0.0,12.3,62,0.00,,,0.00,VWS V14.01,2013-03-26 16:39:00,
2013-03-26 12:40:00,43.6,31.5,29.56,West,277,4.0,12.3,62,0.00,,,0.00,VWS V14.01,2013-03-26 16:40:00,
2013-03-26 12:49:00,44.1,32.0,29.56,SSW,197,4.9,5.8,62,0.00,,,0.00,VWS V14.01,2013-03-26 16:49:00,
2013-03-26 12:50:00,44.1,32.0,29.56,SSW,197,4.9,5.8,62,0.00,,,0.00,VWS V14.01,2013-03-26 16:50:00,
2013-03-26 12:54:00,45.0,32.9,29.56,WSW,248,0.0,4.9,62,0.00,,,0.00,VWS V14.01,2013-03-26 16:54:00,
2013-03-26 12:59:00,45.0,32.9,29.56,East,100,10.1,10.5,62,0.00,,,0.00,VWS V14.01,2013-03-26 16:59:00,
2013-03-26 13:00:00,45.0,32.9,29.56,East,100,10.1,10.5,62,0.00,,,0.00,VWS V14.01,2013-03-26 17:00:00,
2013-03-26 13:04:00,44.7,32.5,29.56,NE,55,3.6,10.1,62,0.00,,,0.00,VWS V14.01,2013-03-26 17:04:00,
2013-03-26 13:09:00,44.5,32.3,29.56,SSW,192,0.0,10.1,62,0.00,,,0.00,VWS V14.01,2013-03-26 17:09:00,
2013-03-26 13:10:00,44.5,32.3,29.56,SSW,192,0.0,10.1,62,0.00,,,0.00,VWS V14.01,2013-03-26 17:10:00,
2013-03-26 13:19:00,45.6,33.4,29.56,NE,43,0.0,4.0,62,0.00,,,0.00,VWS V14.01,2013-03-26 17:19:00,
2013-03-26 13:20:00,45.6,33.4,29.56,NE,43,0.0,4.0,62,0.00,,,0.00,VWS V14.01,2013-03-26 17:20:00,
2013-03-26 13:24:00,45.8,33.5,29.56,ENE,71,6.3,6.3,62,0.00,,,0.00,VWS V14.01,2013-03-26 17:24:00,
2013-03-26 13:29:00,45.4,33.2,29.56,NE,43,2.7,8.3,62,0.00,,,0.00,VWS V14.01,2013-03-26 17:29:00,
2013-03-26 13:30:00,45.4,33.2,29.56,NE,43,2.7,8.3,62,0.00,,,0.00,VWS V14.01,2013-03-26 17:30:00,
2013-03-26 13:34:00,45.4,33.2,29.56,SSW,202,6.7,6.7,62,0.00,,,0.00,VWS V14.01,2013-03-26 17:34:00,
2013-03-26 13:39:00,44.5,32.3,29.56,SSW,205,3.6,6.7,62,0.00,,,0.00,VWS V14.01,2013-03-26 17:39:00,
2013-03-26 13:44:00,44.5,32.3,29.56,South,176,3.6,5.8,62,0.00,,,0.00,VWS V14.01,2013-03-26 17:44:00,
2013-03-26 13:49:00,44.5,32.3,29.56,SW,216,4.9,5.8,62,0.00,,,0.00,VWS V14.01,2013-03-26 17:49:00,
2013-03-26 13:50:00,44.9,32.7,29.56,SW,216,4.9,5.8,62,0.00,,,0.00,VWS V14.01,2013-03-26 17:50:00,
2013-03-26 13:54:00,44.9,32.7,29.56,East,89,3.6,6.3,62,0.00,,,0.00,VWS V14.01,2013-03-26 17:54:00,
2013-03-26 13:59:00,44.9,32.7,29.56,SE,126,4.0,6.3,62,0.00,,,0.00,VWS V14.01,2013-03-26 17:59:00,
2013-03-26 14:00:00,44.9,32.7,29.56,SE,126,4.0,6.3,62,0.00,,,0.00,VWS V14.01,2013-03-26 18:00:00,
2013-03-26 14:09:00,45.0,32.9,29.59,ESE,102,2.7,6.3,62,0.00,,,0.00,VWS V14.01,2013-03-26 18:09:00,
2013-03-26 14:14:00,44.5,32.3,29.59,WNW,301,2.2,2.7,62,0.00,,,0.00,VWS V14.01,2013-03-26 18:14:00,
2013-03-26 14:19:00,44.5,32.3,29.59,SE,135,0.0,4.0,62,0.00,,,0.00,VWS V14.01,2013-03-26 18:19:00,
2013-03-26 14:20:00,44.5,32.3,29.59,SE,135,0.0,4.0,62,0.00,,,0.00,VWS V14.01,2013-03-26 18:20:00,
2013-03-26 14:24:00,45.6,33.4,29.59,SSE,157,4.0,4.0,62,0.00,,,0.00,VWS V14.01,2013-03-26 18:24:00,
2013-03-26 14:29:00,46.3,34.0,29.59,NE,46,0.0,5.4,62,0.00,,,0.00,VWS V14.01,2013-03-26 18:29:00,
2013-03-26 14:30:00,46.3,34.0,29.59,NE,46,0.0,5.4,62,0.00,,,0.00,VWS V14.01,2013-03-26 18:30:00,
2013-03-26 14:34:00,46.3,34.0,29.59,SE,145,6.3,7.2,62,0.00,,,0.00,VWS V14.01,2013-03-26 18:34:00,
2013-03-26 14:39:00,47.0,34.7,29.59,NE,34,4.9,10.1,62,0.00,,,0.00,VWS V14.01,2013-03-26 18:39:00,
2013-03-26 14:40:00,47.0,34.7,29.59,NE,34,4.9,10.1,62,0.00,,,0.00,VWS V14.01,2013-03-26 18:40:00,
2013-03-26 14:44:00,47.4,32.1,29.59,NE,55,5.4,8.1,55,0.00,,,0.00,VWS V14.01,2013-03-26 18:44:00,
2013-03-26 14:49:00,47.4,32.1,29.59,SSE,167,3.1,8.1,55,0.00,,,0.00,VWS V14.01,2013-03-26 18:49:00,
2013-03-26 14:50:00,47.4,32.1,29.59,SSE,167,3.1,8.1,55,0.00,,,0.00,VWS V14.01,2013-03-26 18:50:00,
2013-03-26 14:59:00,47.4,34.1,29.59,ENE,71,3.1,4.0,60,0.00,,,0.00,VWS V14.01,2013-03-26 18:59:00,
2013-03-26 15:00:00,47.7,34.5,29.59,SE,124,4.0,4.0,60,0.00,,,0.00,VWS V14.01,2013-03-26 19:00:00,
2013-03-26 15:04:00,47.7,32.5,29.56,SE,124,4.0,4.0,55,0.00,,,0.00,VWS V14.01,2013-03-26 19:04:00,
2013-03-26 15:09:00,47.7,32.5,29.56,East,81,4.0,6.3,55,0.00,,,0.00,VWS V14.01,2013-03-26 19:09:00,
2013-03-26 15:14:00,47.7,32.5,29.56,SE,145,4.9,4.9,55,0.00,,,0.00,VWS V14.01,2013-03-26 19:14:00,
2013-03-26 15:19:00,47.0,31.8,29.59,SSW,192,3.1,4.9,55,0.00,,,0.00,VWS V14.01,2013-03-26 19:19:00,
2013-03-26 15:20:00,47.0,31.8,29.59,SSW,192,3.1,4.9,55,0.00,,,0.00,VWS V14.01,2013-03-26 19:20:00,
2013-03-26 15:24:00,46.5,31.3,29.59,ENE,61,5.8,5.8,55,0.00,,,0.00,VWS V14.01,2013-03-26 19:24:00,
2013-03-26 15:29:00,46.1,31.0,29.59,South,170,3.1,8.7,55,0.00,,,0.00,VWS V14.01,2013-03-26 19:29:00,
2013-03-26 15:30:00,46.1,31.0,29.59,South,170,3.1,8.7,55,0.00,,,0.00,VWS V14.01,2013-03-26 19:30:00,
2013-03-26 15:39:00,45.6,30.5,29.59,WSW,238,3.6,12.8,55,0.00,,,0.00,VWS V14.01,2013-03-26 19:39:00,
2013-03-26 15:40:00,45.6,30.5,29.59,NE,39,6.3,12.8,55,0.00,,,0.00,VWS V14.01,2013-03-26 19:40:00,
2013-03-26 15:50:00,45.2,31.1,29.59,ESE,104,0.0,8.3,58,0.00,,,0.00,VWS V14.01,2013-03-26 19:50:00,
2013-03-26 16:00:00,45.2,31.1,29.59,ESE,112,2.7,13.2,58,0.00,,,0.00,VWS V14.01,2013-03-26 20:00:00,
2013-03-26 16:05:00,45.2,31.1,29.59,East,96,3.6,4.9,58,0.00,,,0.00,VWS V14.01,2013-03-26 20:05:00,
2013-03-26 16:10:00,45.4,30.3,29.59,ENE,72,8.7,8.7,55,0.00,,,0.00,VWS V14.01,2013-03-26 20:10:00,
2013-03-26 16:15:00,45.6,30.5,29.59,ENE,72,8.7,8.7,55,0.00,,,0.00,VWS V14.01,2013-03-26 20:15:00,
2013-03-26 16:20:00,45.8,30.6,29.59,NE,52,5.4,8.7,55,0.00,,,0.00,VWS V14.01,2013-03-26 20:20:00,
2013-03-26 16:25:00,45.9,30.8,29.59,East,89,5.8,5.8,55,0.00,,,0.00,VWS V14.01,2013-03-26 20:25:00,
2013-03-26 16:30:00,45.9,30.8,29.59,ENE,71,3.1,3.1,55,0.00,,,0.00,VWS V14.01,2013-03-26 20:30:00,
2013-03-26 16:35:00,46.3,31.1,29.59,SW,218,3.1,6.3,55,0.00,,,0.00,VWS V14.01,2013-03-26 20:35:00,
2013-03-26 16:40:00,46.1,31.0,29.59,South,171,2.2,2.2,55,0.00,,,0.00,VWS V14.01,2013-03-26 20:40:00,
2013-03-26 16:45:00,46.1,31.0,29.59,East,81,3.6,12.8,55,0.00,,,0.00,VWS V14.01,2013-03-26 20:45:00,
2013-03-26 16:50:00,45.8,30.6,29.59,East,86,3.1,12.8,55,0.00,,,0.00,VWS V14.01,2013-03-26 20:50:00,
2013-03-26 16:55:00,46.1,31.0,29.59,SSW,193,2.2,3.6,55,0.00,,,0.00,VWS V14.01,2013-03-26 20:55:00,
2013-03-26 17:00:00,46.7,31.5,29.59,SE,126,5.4,7.6,55,0.00,,,0.00,VWS V14.01,2013-03-26 21:00:00,
2013-03-26 17:05:00,47.4,32.1,29.59,East,81,9.2,9.2,55,0.00,,,0.00,VWS V14.01,2013-03-26 21:05:00,
2013-03-26 17:10:00,47.4,32.1,29.59,ESE,116,3.1,3.1,55,0.00,,,0.00,VWS V14.01,2013-03-26 21:10:00,
2013-03-26 17:15:00,46.3,31.1,29.59,East,79,6.3,6.3,55,0.00,,,0.00,VWS V14.01,2013-03-26 21:15:00,
2013-03-26 17:20:00,47.2,32.0,29.59,NNE,19,5.8,5.8,55,0.00,,,0.00,VWS V14.01,2013-03-26 21:20:00,
2013-03-26 17:25:00,47.4,32.1,29.59,ENE,60,8.1,8.1,55,0.00,,,0.00,VWS V14.01,2013-03-26 21:25:00,
2013-03-26 17:30:00,47.9,32.6,29.59,ESE,104,2.7,2.7,55,0.00,,,0.00,VWS V14.01,2013-03-26 21:30:00,
2013-03-26 17:35:00,47.7,32.5,29.59,ENE,77,5.4,5.4,55,0.00,,,0.00,VWS V14.01,2013-03-26 21:35:00,
2013-03-26 17:40:00,47.9,32.6,29.59,SE,136,0.0,5.4,55,0.00,,,0.00,VWS V14.01,2013-03-26 21:40:00,
2013-03-26 17:45:00,47.0,31.8,29.59,East,101,4.0,4.0,55,0.00,,,0.00,VWS V14.01,2013-03-26 21:45:00,
2013-03-26 17:50:00,46.3,31.1,29.59,SSE,149,3.6,4.0,55,0.00,,,0.00,VWS V14.01,2013-03-26 21:50:00,
2013-03-26 17:55:00,45.2,31.1,29.62,ESE,116,8.3,8.3,58,0.00,,,0.00,VWS V14.01,2013-03-26 21:55:00,
2013-03-26 18:00:00,45.2,31.1,29.62,ESE,116,8.3,8.3,58,0.00,,,0.00,VWS V14.01,2013-03-26 22:00:00,
2013-03-26 18:05:00,45.6,30.5,29.62,ESE,111,2.2,8.3,55,0.00,,,0.00,VWS V14.01,2013-03-26 22:05:00,
2013-03-26 18:10:00,45.6,30.5,29.62,SSE,156,0.0,8.3,55,0.00,,,0.00,VWS V14.01,2013-03-26 22:10:00,
2013-03-26 18:15:00,45.8,30.6,29.62,South,177,3.1,6.3,55,0.00,,,0.00,VWS V14.01,2013-03-26 22:15:00,
2013-03-26 18:20:00,45.8,30.6,29.62,ENE,70,6.7,6.7,55,0.00,,,0.00,VWS V14.01,2013-03-26 22:20:00,
2013-03-26 18:25:00,44.7,30.6,29.62,ESE,110,2.7,6.7,58,0.00,,,0.00,VWS V14.01,2013-03-26 22:25:00,
2013-03-26 18:30:00,44.9,30.8,29.62,SSE,163,2.7,6.7,58,0.00,,,0.00,VWS V14.01,2013-03-26 22:30:00,
2013-03-26 18:35:00,45.0,31.0,29.62,SSE,153,2.2,3.1,58,0.00,,,0.00,VWS V14.01,2013-03-26 22:35:00,
2013-03-26 18:40:00,44.9,30.8,29.62,East,93,5.4,5.4,58,0.00,,,0.00,VWS V14.01,2013-03-26 22:40:00,
2013-03-26 18:45:00,44.3,30.3,29.62,East,86,3.6,6.3,58,0.00,,,0.00,VWS V14.01,2013-03-26 22:45:00,
2013-03-26 18:50:00,44.3,30.3,29.62,SSE,165,3.1,6.3,58,0.00,,,0.00,VWS V14.01,2013-03-26 22:50:00,
2013-03-26 18:55:00,44.3,30.3,29.62,ESE,116,2.7,3.1,58,0.00,,,0.00,VWS V14.01,2013-03-26 22:55:00,
2013-03-26 19:00:00,44.3,30.3,29.62,East,84,7.2,7.2,58,0.00,,,0.00,VWS V14.01,2013-03-26 23:00:00,
2013-03-26 19:05:00,44.0,29.9,29.62,SE,136,3.1,7.2,58,0.00,,,0.00,VWS V14.01,2013-03-26 23:05:00,
2013-03-26 19:10:00,44.0,29.9,29.62,ENE,63,2.7,7.2,58,0.00,,,0.00,VWS V14.01,2013-03-26 23:10:00,
2013-03-26 19:15:00,43.2,29.3,29.62,East,92,4.0,4.0,58,0.00,,,0.00,VWS V14.01,2013-03-26 23:15:00,
2013-03-26 19:20:00,42.7,31.5,29.65,ENE,65,3.6,4.0,64,0.00,,,0.00,VWS V14.01,2013-03-26 23:20:00,
2013-03-26 19:25:00,42.2,31.0,29.65,ESE,114,0.0,4.0,64,0.00,,,0.00,VWS V14.01,2013-03-26 23:25:00,
2013-03-26 19:30:00,41.8,30.7,29.65,ESE,104,0.0,4.0,64,0.00,,,0.00,VWS V14.01,2013-03-26 23:30:00,
2013-03-26 19:35:00,41.8,30.7,29.65,East,86,0.0,5.4,64,0.00,,,0.00,VWS V14.01,2013-03-26 23:35:00,
2013-03-26 19:40:00,40.7,29.7,29.65,ENE,77,3.6,5.4,64,0.00,,,0.00,VWS V14.01,2013-03-26 23:40:00,
2013-03-26 19:45:00,40.7,29.7,29.65,ENE,75,0.0,3.6,64,0.00,,,0.00,VWS V14.01,2013-03-26 23:45:00,
2013-03-26 19:50:00,40.2,29.1,29.65,SSE,162,0.0,3.6,64,0.00,,,0.00,VWS V14.01,2013-03-26 23:50:00,
2013-03-26 19:55:00,39.8,29.7,29.65,ENE,67,4.0,5.8,67,0.00,,,0.00,VWS V14.01,2013-03-26 23:55:00,
2013-03-26 20:00:00,39.8,29.7,29.65,ENE,65,2.7,2.7,67,0.00,,,0.00,VWS V14.01,2013-03-27 00:00:00,
2013-03-26 20:05:00,39.5,29.3,29.65,ESE,110,2.7,2.7,67,0.00,,,0.00,VWS V14.01,2013-03-27 00:05:00,
2013-03-26 20:10:00,39.5,29.3,29.65,SSE,162,0.0,2.7,67,0.00,,,0.00,VWS V14.01,2013-03-27 00:10:00,
2013-03-26 20:15:00,38.9,28.8,29.65,SE,138,3.1,3.1,67,0.00,,,0.00,VWS V14.01,2013-03-27 00:15:00,
2013-03-26 20:20:00,38.9,28.8,29.65,NE,34,2.2,3.1,67,0.00,,,0.00,VWS V14.01,2013-03-27 00:20:00,
2013-03-26 20:25:00,38.7,28.6,29.65,NNE,33,0.0,2.2,67,0.00,,,0.00,VWS V14.01,2013-03-27 00:25:00,
2013-03-26 20:30:00,38.6,28.5,29.65,East,101,2.2,2.2,67,0.00,,,0.00,VWS V14.01,2013-03-27 00:30:00,
2013-03-26 20:35:00,38.4,28.3,29.65,East,93,0.0,2.2,67,0.00,,,0.00,VWS V14.01,2013-03-27 00:35:00,
2013-03-26 20:40:00,38.2,28.9,29.65,East,93,0.0,2.2,69,0.00,,,0.00,VWS V14.01,2013-03-27 00:40:00,
2013-03-26 20:46:00,38.0,28.8,29.65,ESE,121,3.1,3.1,69,0.00,,,0.00,VWS V14.01,2013-03-27 00:46:00,
2013-03-26 20:50:00,37.8,28.6,29.68,ESE,121,3.1,3.1,69,0.00,,,0.00,VWS V14.01,2013-03-27 00:50:00,
2013-03-26 20:51:00,37.7,28.4,29.68,ESE,121,3.1,3.1,69,0.00,,,0.00,VWS V14.01,2013-03-27 00:51:00,
2013-03-26 20:56:00,37.5,29.0,29.68,ENE,75,4.0,4.0,71,0.00,,,0.00,VWS V14.01,2013-03-27 00:56:00,
2013-03-26 21:00:00,37.5,29.0,29.68,ENE,75,4.0,4.0,71,0.00,,,0.00,VWS V14.01,2013-03-27 01:00:00,
2013-03-26 21:01:00,37.5,29.0,29.68,ENE,75,4.0,4.0,71,0.00,,,0.00,VWS V14.01,2013-03-27 01:01:00,
2013-03-26 21:06:00,37.3,28.9,29.68,ESE,106,2.2,4.0,71,0.00,,,0.00,VWS V14.01,2013-03-27 01:06:00,
2013-03-26 21:10:00,37.1,28.7,29.68,ESE,109,0.0,4.0,71,0.00,,,0.00,VWS V14.01,2013-03-27 01:10:00,
2013-03-26 21:11:00,37.1,28.7,29.68,ESE,109,0.0,0.0,71,0.00,,,0.00,VWS V14.01,2013-03-27 01:11:00,
2013-03-26 21:16:00,36.9,28.5,29.68,ENE,78,2.7,2.7,71,0.00,,,0.00,VWS V14.01,2013-03-27 01:16:00,
2013-03-26 21:20:00,36.9,28.5,29.68,East,87,0.0,2.7,71,0.00,,,0.00,VWS V14.01,2013-03-27 01:20:00,
2013-03-26 21:21:00,36.9,28.5,29.68,East,87,0.0,0.0,71,0.00,,,0.00,VWS V14.01,2013-03-27 01:21:00,
2013-03-26 21:26:00,36.6,28.2,29.68,ESE,105,0.0,0.0,71,0.00,,,0.00,VWS V14.01,2013-03-27 01:26:00,
2013-03-26 21:30:00,36.6,28.2,29.68,ESE,105,0.0,0.0,71,0.00,,,0.00,VWS V14.01,2013-03-27 01:30:00,
2013-03-26 21:31:00,36.4,28.8,29.68,SE,128,2.2,2.2,74,0.00,,,0.00,VWS V14.01,2013-03-27 01:31:00,
2013-03-26 21:36:00,36.2,28.6,29.68,ENE,74,0.0,2.2,74,0.00,,,0.00,VWS V14.01,2013-03-27 01:36:00,
2013-03-26 21:41:00,36.0,29.2,29.68,ESE,107,3.1,3.1,76,0.00,,,0.00,VWS V14.01,2013-03-27 01:41:00,
2013-03-26 21:50:00,36.0,29.2,29.68,East,79,0.0,3.1,76,0.00,,,0.00,VWS V14.01,2013-03-27 01:50:00,
2013-03-26 21:56:00,36.0,29.9,29.68,South,187,0.0,0.0,78,0.00,,,0.00,VWS V14.01,2013-03-27 01:56:00,
2013-03-26 22:00:00,35.9,29.8,29.68,East,82,3.6,3.6,78,0.00,,,0.00,VWS V14.01,2013-03-27 02:00:00,
2013-03-26 22:01:00,35.9,29.8,29.68,East,88,0.0,3.6,78,0.00,,,0.00,VWS V14.01,2013-03-27 02:01:00,
2013-03-26 22:06:00,35.9,29.8,29.68,ENE,67,0.0,3.6,78,0.00,,,0.00,VWS V14.01,2013-03-27 02:06:00,
2013-03-26 22:11:00,35.9,29.8,29.68,ENE,67,0.0,0.0,78,0.00,,,0.00,VWS V14.01,2013-03-27 02:11:00,
2013-03-26 22:20:00,35.9,29.8,29.68,SE,140,0.0,2.7,78,0.00,,,0.00,VWS V14.01,2013-03-27 02:20:00,
2013-03-26 22:21:00,35.9,29.8,29.68,SE,140,0.0,0.0,78,0.00,,,0.00,VWS V14.01,2013-03-27 02:21:00,
2013-03-26 22:26:00,35.7,29.6,29.68,ENE,65,0.0,0.0,78,0.00,,,0.00,VWS V14.01,2013-03-27 02:26:00,
2013-03-26 22:30:00,35.7,29.6,29.68,ESE,106,0.0,2.2,78,0.00,,,0.00,VWS V14.01,2013-03-27 02:30:00,
2013-03-26 22:36:00,35.7,29.6,29.68,SSE,154,0.0,0.0,78,0.00,,,0.00,VWS V14.01,2013-03-27 02:36:00,
2013-03-26 22:40:00,35.3,29.9,29.68,NE,35,0.0,0.0,80,0.00,,,0.00,VWS V14.01,2013-03-27 02:40:00,
2013-03-26 22:42:00,35.3,29.9,29.68,SE,139,2.7,3.1,80,0.00,,,0.00,VWS V14.01,2013-03-27 02:42:00,
2013-03-26 22:47:00,35.3,29.9,29.68,SE,139,2.7,3.1,80,0.00,,,0.00,VWS V14.01,2013-03-27 02:47:00,
2013-03-26 22:52:00,35.1,29.8,29.68,ENE,58,0.0,0.0,80,0.00,,,0.00,VWS V14.01,2013-03-27 02:52:00,
2013-03-26 22:57:00,35.1,29.8,29.68,South,187,0.0,2.2,80,0.00,,,0.00,VWS V14.01,2013-03-27 02:57:00,
2013-03-26 23:02:00,35.0,30.3,29.71,South,187,0.0,0.0,83,0.00,,,0.00,VWS V14.01,2013-03-27 03:02:00,
2013-03-26 23:07:00,35.0,30.3,29.71,SW,216,0.0,0.0,83,0.00,,,0.00,VWS V14.01,2013-03-27 03:07:00,
2013-03-26 23:10:00,35.0,30.3,29.71,SSE,165,0.0,2.2,83,0.00,,,0.00,VWS V14.01,2013-03-27 03:10:00,
2013-03-26 23:17:00,34.8,30.1,29.71,ENE,78,0.0,0.0,83,0.00,,,0.00,VWS V14.01,2013-03-27 03:17:00,
2013-03-26 23:20:00,34.8,30.1,29.71,SE,141,2.7,2.7,83,0.00,,,0.00,VWS V14.01,2013-03-27 03:20:00,
2013-03-26 23:22:00,34.6,29.9,29.71,ESE,120,0.0,2.7,83,0.00,,,0.00,VWS V14.01,2013-03-27 03:22:00,
2013-03-26 23:27:00,34.6,29.9,29.71,ESE,118,3.1,3.1,83,0.00,,,0.00,VWS V14.01,2013-03-27 03:27:00,
2013-03-26 23:30:00,34.6,30.6,29.71,NE,53,0.0,3.1,85,0.00,,,0.00,VWS V14.01,2013-03-27 03:30:00,
2013-03-26 23:32:00,34.6,30.6,29.71,NE,53,0.0,0.0,85,0.00,,,0.00,VWS V14.01,2013-03-27 03:32:00,
2013-03-26 23:37:00,34.6,30.6,29.71,East,84,0.0,0.0,85,0.00,,,0.00,VWS V14.01,2013-03-27 03:37:00,
2013-03-26 23:40:00,34.6,30.6,29.71,East,97,0.0,0.0,85,0.00,,,0.00,VWS V14.01,2013-03-27 03:40:00,
2013-03-26 23:42:00,34.4,30.4,29.71,East,97,0.0,0.0,85,0.00,,,0.00,VWS V14.01,2013-03-27 03:42:00,
2013-03-26 23:47:00,34.4,30.4,29.71,East,80,0.0,3.6,85,0.00,,,0.00,VWS V14.01,2013-03-27 03:47:00,
2013-03-26 23:50:00,34.4,30.4,29.71,East,80,0.0,3.6,85,0.00,,,0.00,VWS V14.01,2013-03-27 03:50:00,
2013-03-26 23:52:00,34.4,30.4,29.71,East,81,0.0,0.0,85,0.00,,,0.00,VWS V14.01,2013-03-27 03:52:00,
2013-03-26 23:57:00,34.1,30.7,29.71,ESE,103,0.0,0.0,87,0.00,,,0.00,VWS V14.01,2013-03-27 03:57:00,